sensor_id;sensor_type;location;lat;lon;timestamp;P1;durP1;ratioP1;P2;durP2;ratioP2
70367;SDS011;57789;53.868;10.728;2023-11-19T00:02:18;10.33;;;5.90;;
70367;SDS011;57789;53.868;10.728;2023-11-19T00:04:44;12.80;;;4.60;;
70367;SDS011;57789;53.868;10.728;2023-11-19T00:07:10;12.23;;;5.37;;
70367;SDS011;57789;53.868;10.728;2023-11-19T00:09:38;10.50;;;5.57;;
70367;SDS011;57789;53.868;10.728;2023-11-19T00:12:05;10.00;;;4.90;;
70367;SDS011;57789;53.868;10.728;2023-11-19T00:14:31;9.67;;;4.37;;
70367;SDS011;57789;53.868;10.728;2023-11-19T00:16:57;10.43;;;5.00;;
70367;SDS011;57789;53.868;10.728;2023-11-19T00:19:23;7.97;;;4.60;;
70367;SDS011;57789;53.868;10.728;2023-11-19T00:21:49;4.93;;;3.67;;
70367;SDS011;57789;53.868;10.728;2023-11-19T00:24:14;4.80;;;3.67;;
70367;SDS011;57789;53.868;10.728;2023-11-19T00:26:43;4.90;;;3.53;;
70367;SDS011;57789;53.868;10.728;2023-11-19T00:29:09;5.70;;;3.53;;
70367;SDS011;57789;53.868;10.728;2023-11-19T00:31:35;5.53;;;3.60;;
70367;SDS011;57789;53.868;10.728;2023-11-19T00:34:02;7.33;;;5.63;;
70367;SDS011;57789;53.868;10.728;2023-11-19T00:36:28;4.13;;;3.03;;
70367;SDS011;57789;53.868;10.728;2023-11-19T00:38:54;8.03;;;4.57;;
70367;SDS011;57789;53.868;10.728;2023-11-19T00:41:20;5.70;;;4.00;;
70367;SDS011;57789;53.868;10.728;2023-11-19T00:43:46;5.97;;;3.90;;
70367;SDS011;57789;53.868;10.728;2023-11-19T00:46:13;4.83;;;3.77;;
70367;SDS011;57789;53.868;10.728;2023-11-19T00:48:39;5.47;;;3.70;;
70367;SDS011;57789;53.868;10.728;2023-11-19T00:51:05;5.90;;;3.70;;
70367;SDS011;57789;53.868;10.728;2023-11-19T00:53:31;6.57;;;4.00;;
70367;SDS011;57789;53.868;10.728;2023-11-19T00:55:58;7.27;;;4.30;;
70367;SDS011;57789;53.868;10.728;2023-11-19T00:58:24;4.20;;;3.37;;
70367;SDS011;57789;53.868;10.728;2023-11-19T01:00:50;6.43;;;3.90;;
70367;SDS011;57789;53.868;10.728;2023-11-19T01:03:16;5.70;;;4.03;;
70367;SDS011;57789;53.868;10.728;2023-11-19T01:05:42;4.17;;;3.50;;
70367;SDS011;57789;53.868;10.728;2023-11-19T01:08:09;4.60;;;3.77;;
70367;SDS011;57789;53.868;10.728;2023-11-19T01:10:36;5.07;;;3.73;;
70367;SDS011;57789;53.868;10.728;2023-11-19T01:13:02;6.13;;;3.90;;
70367;SDS011;57789;53.868;10.728;2023-11-19T01:15:30;5.67;;;4.13;;
70367;SDS011;57789;53.868;10.728;2023-11-19T01:17:56;5.60;;;3.80;;
70367;SDS011;57789;53.868;10.728;2023-11-19T01:20:22;3.63;;;3.33;;
70367;SDS011;57789;53.868;10.728;2023-11-19T01:22:48;8.33;;;4.20;;
70367;SDS011;57789;53.868;10.728;2023-11-19T01:25:14;5.07;;;3.43;;
70367;SDS011;57789;53.868;10.728;2023-11-19T01:27:40;5.57;;;3.90;;
70367;SDS011;57789;53.868;10.728;2023-11-19T01:30:06;5.30;;;3.60;;
70367;SDS011;57789;53.868;10.728;2023-11-19T01:32:35;5.47;;;3.20;;
70367;SDS011;57789;53.868;10.728;2023-11-19T01:35:02;4.43;;;3.97;;
70367;SDS011;57789;53.868;10.728;2023-11-19T01:37:29;6.83;;;3.60;;
70367;SDS011;57789;53.868;10.728;2023-11-19T01:39:56;6.63;;;3.10;;
70367;SDS011;57789;53.868;10.728;2023-11-19T01:42:22;4.60;;;2.90;;
70367;SDS011;57789;53.868;10.728;2023-11-19T01:44:59;5.13;;;3.10;;
70367;SDS011;57789;53.868;10.728;2023-11-19T01:47:29;2.90;;;2.47;;
70367;SDS011;57789;53.868;10.728;2023-11-19T01:49:56;4.23;;;2.53;;
70367;SDS011;57789;53.868;10.728;2023-11-19T01:52:22;3.70;;;3.27;;
70367;SDS011;57789;53.868;10.728;2023-11-19T01:54:49;3.90;;;2.80;;
70367;SDS011;57789;53.868;10.728;2023-11-19T01:57:15;3.40;;;2.13;;
70367;SDS011;57789;53.868;10.728;2023-11-19T01:59:41;3.20;;;2.73;;
70367;SDS011;57789;53.868;10.728;2023-11-19T02:02:08;2.37;;;2.13;;
70367;SDS011;57789;53.868;10.728;2023-11-19T02:04:34;2.80;;;2.33;;
70367;SDS011;57789;53.868;10.728;2023-11-19T02:07:00;2.40;;;2.20;;
70367;SDS011;57789;53.868;10.728;2023-11-19T02:09:26;3.10;;;2.63;;
70367;SDS011;57789;53.868;10.728;2023-11-19T02:11:52;2.90;;;1.90;;
70367;SDS011;57789;53.868;10.728;2023-11-19T02:14:19;3.57;;;2.50;;
70367;SDS011;57789;53.868;10.728;2023-11-19T02:16:49;2.20;;;2.00;;
70367;SDS011;57789;53.868;10.728;2023-11-19T02:19:14;3.97;;;2.60;;
70367;SDS011;57789;53.868;10.728;2023-11-19T02:21:40;3.60;;;2.33;;
70367;SDS011;57789;53.868;10.728;2023-11-19T02:24:07;3.03;;;2.17;;
70367;SDS011;57789;53.868;10.728;2023-11-19T02:29:24;2.53;;;2.27;;
70367;SDS011;57789;53.868;10.728;2023-11-19T02:31:50;2.37;;;2.17;;
70367;SDS011;57789;53.868;10.728;2023-11-19T02:34:15;2.47;;;1.77;;
70367;SDS011;57789;53.868;10.728;2023-11-19T02:36:41;2.60;;;1.80;;
70367;SDS011;57789;53.868;10.728;2023-11-19T02:39:07;2.67;;;1.80;;
70367;SDS011;57789;53.868;10.728;2023-11-19T02:41:36;2.20;;;1.60;;
70367;SDS011;57789;53.868;10.728;2023-11-19T02:44:04;1.60;;;1.50;;
70367;SDS011;57789;53.868;10.728;2023-11-19T02:46:31;3.40;;;1.93;;
70367;SDS011;57789;53.868;10.728;2023-11-19T02:48:57;2.33;;;2.13;;
70367;SDS011;57789;53.868;10.728;2023-11-19T02:51:23;2.83;;;1.30;;
70367;SDS011;57789;53.868;10.728;2023-11-19T02:53:48;1.77;;;1.23;;
70367;SDS011;57789;53.868;10.728;2023-11-19T02:56:14;2.87;;;1.50;;
70367;SDS011;57789;53.868;10.728;2023-11-19T02:58:50;1.30;;;1.10;;
70367;SDS011;57789;53.868;10.728;2023-11-19T03:01:25;1.77;;;1.30;;
70367;SDS011;57789;53.868;10.728;2023-11-19T03:03:55;1.57;;;1.47;;
70367;SDS011;57789;53.868;10.728;2023-11-19T03:06:22;2.47;;;1.23;;
70367;SDS011;57789;53.868;10.728;2023-11-19T03:08:48;2.60;;;1.23;;
70367;SDS011;57789;53.868;10.728;2023-11-19T03:11:14;1.93;;;1.17;;
70367;SDS011;57789;53.868;10.728;2023-11-19T03:13:40;1.27;;;1.17;;
70367;SDS011;57789;53.868;10.728;2023-11-19T03:16:06;1.10;;;1.00;;
70367;SDS011;57789;53.868;10.728;2023-11-19T03:18:32;1.20;;;1.10;;
70367;SDS011;57789;53.868;10.728;2023-11-19T03:20:58;2.10;;;1.30;;
70367;SDS011;57789;53.868;10.728;2023-11-19T03:23:24;1.20;;;0.90;;
70367;SDS011;57789;53.868;10.728;2023-11-19T03:25:53;1.37;;;1.27;;
70367;SDS011;57789;53.868;10.728;2023-11-19T03:28:19;2.00;;;1.60;;
70367;SDS011;57789;53.868;10.728;2023-11-19T03:30:45;1.80;;;1.70;;
70367;SDS011;57789;53.868;10.728;2023-11-19T03:33:10;1.57;;;1.27;;
70367;SDS011;57789;53.868;10.728;2023-11-19T03:35:36;1.73;;;1.00;;
70367;SDS011;57789;53.868;10.728;2023-11-19T03:38:02;1.50;;;1.20;;
70367;SDS011;57789;53.868;10.728;2023-11-19T03:40:28;0.80;;;0.80;;
70367;SDS011;57789;53.868;10.728;2023-11-19T03:42:55;1.23;;;0.93;;
70367;SDS011;57789;53.868;10.728;2023-11-19T03:45:23;1.10;;;0.97;;
70367;SDS011;57789;53.868;10.728;2023-11-19T03:47:49;0.83;;;0.80;;
70367;SDS011;57789;53.868;10.728;2023-11-19T03:50:15;1.27;;;0.90;;
70367;SDS011;57789;53.868;10.728;2023-11-19T03:52:41;1.10;;;0.80;;
70367;SDS011;57789;53.868;10.728;2023-11-19T03:55:08;0.80;;;0.80;;
70367;SDS011;57789;53.868;10.728;2023-11-19T03:57:34;1.43;;;1.00;;
70367;SDS011;57789;53.868;10.728;2023-11-19T04:00:00;0.90;;;0.77;;
70367;SDS011;57789;53.868;10.728;2023-11-19T04:02:33;0.50;;;0.50;;
70367;SDS011;57789;53.868;10.728;2023-11-19T04:04:58;1.67;;;0.83;;
70367;SDS011;57789;53.868;10.728;2023-11-19T04:07:24;1.03;;;0.90;;
70367;SDS011;57789;53.868;10.728;2023-11-19T04:09:49;0.63;;;0.53;;
70367;SDS011;57789;53.868;10.728;2023-11-19T04:12:15;2.63;;;0.87;;
70367;SDS011;57789;53.868;10.728;2023-11-19T04:14:41;1.03;;;0.70;;
70367;SDS011;57789;53.868;10.728;2023-11-19T04:17:07;0.70;;;0.60;;
70367;SDS011;57789;53.868;10.728;2023-11-19T04:19:33;0.90;;;0.60;;
70367;SDS011;57789;53.868;10.728;2023-11-19T04:21:58;0.70;;;0.60;;
70367;SDS011;57789;53.868;10.728;2023-11-19T04:24:24;1.63;;;0.60;;
70367;SDS011;57789;53.868;10.728;2023-11-19T04:26:50;0.90;;;0.70;;
70367;SDS011;57789;53.868;10.728;2023-11-19T04:29:16;1.27;;;0.70;;
70367;SDS011;57789;53.868;10.728;2023-11-19T04:31:42;0.90;;;0.80;;
70367;SDS011;57789;53.868;10.728;2023-11-19T04:34:09;0.80;;;0.60;;
70367;SDS011;57789;53.868;10.728;2023-11-19T04:36:36;0.90;;;0.60;;
70367;SDS011;57789;53.868;10.728;2023-11-19T04:39:02;1.03;;;0.53;;
70367;SDS011;57789;53.868;10.728;2023-11-19T04:41:44;1.03;;;0.83;;
70367;SDS011;57789;53.868;10.728;2023-11-19T04:44:12;0.70;;;0.70;;
70367;SDS011;57789;53.868;10.728;2023-11-19T04:46:37;0.80;;;0.70;;
70367;SDS011;57789;53.868;10.728;2023-11-19T04:49:03;1.27;;;0.70;;
70367;SDS011;57789;53.868;10.728;2023-11-19T04:51:29;0.57;;;0.50;;
70367;SDS011;57789;53.868;10.728;2023-11-19T04:53:55;0.90;;;0.60;;
70367;SDS011;57789;53.868;10.728;2023-11-19T04:56:21;0.70;;;0.70;;
70367;SDS011;57789;53.868;10.728;2023-11-19T04:58:48;0.80;;;0.80;;
70367;SDS011;57789;53.868;10.728;2023-11-19T05:01:14;0.90;;;0.60;;
70367;SDS011;57789;53.868;10.728;2023-11-19T05:03:43;1.93;;;0.70;;
70367;SDS011;57789;53.868;10.728;2023-11-19T05:06:09;5.03;;;0.70;;
70367;SDS011;57789;53.868;10.728;2023-11-19T05:08:35;1.10;;;0.70;;
70367;SDS011;57789;53.868;10.728;2023-11-19T05:11:01;0.73;;;0.70;;
70367;SDS011;57789;53.868;10.728;2023-11-19T05:13:26;0.97;;;0.57;;
70367;SDS011;57789;53.868;10.728;2023-11-19T05:15:52;0.50;;;0.50;;
70367;SDS011;57789;53.868;10.728;2023-11-19T05:18:18;0.70;;;0.70;;
70367;SDS011;57789;53.868;10.728;2023-11-19T05:20:45;1.83;;;0.70;;
70367;SDS011;57789;53.868;10.728;2023-11-19T05:23:10;2.00;;;0.90;;
70367;SDS011;57789;53.868;10.728;2023-11-19T05:25:36;0.80;;;0.80;;
70367;SDS011;57789;53.868;10.728;2023-11-19T05:28:02;1.50;;;1.07;;
70367;SDS011;57789;53.868;10.728;2023-11-19T05:30:28;1.23;;;1.13;;
70367;SDS011;57789;53.868;10.728;2023-11-19T05:32:53;1.57;;;0.90;;
70367;SDS011;57789;53.868;10.728;2023-11-19T05:35:19;1.63;;;1.00;;
70367;SDS011;57789;53.868;10.728;2023-11-19T05:37:45;0.93;;;0.90;;
70367;SDS011;57789;53.868;10.728;2023-11-19T05:40:10;1.20;;;1.03;;
70367;SDS011;57789;53.868;10.728;2023-11-19T05:42:42;1.07;;;1.00;;
70367;SDS011;57789;53.868;10.728;2023-11-19T05:45:10;3.80;;;0.80;;
70367;SDS011;57789;53.868;10.728;2023-11-19T05:47:38;1.77;;;1.23;;
70367;SDS011;57789;53.868;10.728;2023-11-19T05:50:03;1.47;;;0.87;;
70367;SDS011;57789;53.868;10.728;2023-11-19T05:52:31;1.27;;;1.00;;
70367;SDS011;57789;53.868;10.728;2023-11-19T05:55:01;1.70;;;1.20;;
70367;SDS011;57789;53.868;10.728;2023-11-19T05:57:34;1.40;;;1.30;;
70367;SDS011;57789;53.868;10.728;2023-11-19T06:00:00;1.27;;;1.17;;
70367;SDS011;57789;53.868;10.728;2023-11-19T06:02:26;1.50;;;1.30;;
70367;SDS011;57789;53.868;10.728;2023-11-19T06:04:52;1.20;;;1.10;;
70367;SDS011;57789;53.868;10.728;2023-11-19T06:07:18;1.30;;;1.13;;
70367;SDS011;57789;53.868;10.728;2023-11-19T06:09:44;1.60;;;1.50;;
70367;SDS011;57789;53.868;10.728;2023-11-19T06:12:10;2.77;;;1.20;;
70367;SDS011;57789;53.868;10.728;2023-11-19T06:14:37;1.77;;;1.50;;
70367;SDS011;57789;53.868;10.728;2023-11-19T06:17:03;2.17;;;1.30;;
70367;SDS011;57789;53.868;10.728;2023-11-19T06:19:29;6.00;;;1.40;;
70367;SDS011;57789;53.868;10.728;2023-11-19T06:21:55;3.33;;;1.93;;
70367;SDS011;57789;53.868;10.728;2023-11-19T06:24:21;8.53;;;1.87;;
70367;SDS011;57789;53.868;10.728;2023-11-19T06:26:47;2.20;;;1.60;;
70367;SDS011;57789;53.868;10.728;2023-11-19T06:29:13;2.57;;;1.93;;
70367;SDS011;57789;53.868;10.728;2023-11-19T06:31:43;4.40;;;2.40;;
70367;SDS011;57789;53.868;10.728;2023-11-19T06:34:09;4.07;;;2.63;;
70367;SDS011;57789;53.868;10.728;2023-11-19T06:36:35;5.77;;;2.33;;
70367;SDS011;57789;53.868;10.728;2023-11-19T06:39:01;3.63;;;2.37;;
70367;SDS011;57789;53.868;10.728;2023-11-19T06:41:27;6.57;;;3.20;;
70367;SDS011;57789;53.868;10.728;2023-11-19T06:43:54;9.90;;;2.90;;
70367;SDS011;57789;53.868;10.728;2023-11-19T06:46:20;6.20;;;2.63;;
70367;SDS011;57789;53.868;10.728;2023-11-19T06:48:45;4.67;;;2.83;;
70367;SDS011;57789;53.868;10.728;2023-11-19T06:51:12;5.50;;;3.57;;
70367;SDS011;57789;53.868;10.728;2023-11-19T06:53:37;6.00;;;3.23;;
70367;SDS011;57789;53.868;10.728;2023-11-19T06:56:06;10.73;;;3.40;;
70367;SDS011;57789;53.868;10.728;2023-11-19T06:58:42;7.93;;;4.07;;
70367;SDS011;57789;53.868;10.728;2023-11-19T07:01:07;7.80;;;4.40;;
70367;SDS011;57789;53.868;10.728;2023-11-19T07:03:34;9.47;;;4.37;;
70367;SDS011;57789;53.868;10.728;2023-11-19T07:06:00;14.07;;;4.80;;
70367;SDS011;57789;53.868;10.728;2023-11-19T07:08:26;18.83;;;5.67;;
70367;SDS011;57789;53.868;10.728;2023-11-19T07:10:52;21.60;;;6.97;;
70367;SDS011;57789;53.868;10.728;2023-11-19T07:13:18;16.30;;;5.77;;
70367;SDS011;57789;53.868;10.728;2023-11-19T07:15:44;12.03;;;5.97;;
70367;SDS011;57789;53.868;10.728;2023-11-19T07:18:10;11.37;;;6.70;;
70367;SDS011;57789;53.868;10.728;2023-11-19T07:20:36;25.07;;;6.90;;
70367;SDS011;57789;53.868;10.728;2023-11-19T07:23:03;12.80;;;7.30;;
70367;SDS011;57789;53.868;10.728;2023-11-19T07:25:29;22.37;;;8.17;;
70367;SDS011;57789;53.868;10.728;2023-11-19T07:27:55;10.10;;;6.67;;
70367;SDS011;57789;53.868;10.728;2023-11-19T07:30:21;15.90;;;6.33;;
70367;SDS011;57789;53.868;10.728;2023-11-19T07:32:47;19.33;;;7.47;;
70367;SDS011;57789;53.868;10.728;2023-11-19T07:35:13;12.27;;;6.90;;
70367;SDS011;57789;53.868;10.728;2023-11-19T07:37:40;25.07;;;7.20;;
70367;SDS011;57789;53.868;10.728;2023-11-19T07:40:07;12.43;;;6.60;;
70367;SDS011;57789;53.868;10.728;2023-11-19T07:42:33;14.90;;;7.70;;
70367;SDS011;57789;53.868;10.728;2023-11-19T07:44:59;19.20;;;6.80;;
70367;SDS011;57789;53.868;10.728;2023-11-19T07:47:24;11.77;;;7.00;;
70367;SDS011;57789;53.868;10.728;2023-11-19T07:49:50;10.73;;;6.70;;
70367;SDS011;57789;53.868;10.728;2023-11-19T07:52:16;14.30;;;7.43;;
70367;SDS011;57789;53.868;10.728;2023-11-19T07:54:42;15.57;;;8.10;;
70367;SDS011;57789;53.868;10.728;2023-11-19T07:57:08;25.57;;;8.27;;
70367;SDS011;57789;53.868;10.728;2023-11-19T07:59:33;11.97;;;7.10;;
70367;SDS011;57789;53.868;10.728;2023-11-19T08:01:59;14.57;;;6.60;;
70367;SDS011;57789;53.868;10.728;2023-11-19T08:04:25;13.97;;;7.33;;
70367;SDS011;57789;53.868;10.728;2023-11-19T08:06:50;19.60;;;7.07;;
70367;SDS011;57789;53.868;10.728;2023-11-19T08:09:16;15.23;;;8.03;;
70367;SDS011;57789;53.868;10.728;2023-11-19T08:11:43;11.47;;;6.00;;
70367;SDS011;57789;53.868;10.728;2023-11-19T08:14:09;14.93;;;7.20;;
70367;SDS011;57789;53.868;10.728;2023-11-19T08:16:35;22.90;;;7.27;;
70367;SDS011;57789;53.868;10.728;2023-11-19T08:19:02;13.90;;;7.17;;
70367;SDS011;57789;53.868;10.728;2023-11-19T08:21:28;14.10;;;6.60;;
70367;SDS011;57789;53.868;10.728;2023-11-19T08:23:54;15.23;;;7.23;;
70367;SDS011;57789;53.868;10.728;2023-11-19T08:26:21;12.07;;;6.10;;
70367;SDS011;57789;53.868;10.728;2023-11-19T08:28:46;16.03;;;6.27;;
70367;SDS011;57789;53.868;10.728;2023-11-19T08:31:12;15.90;;;6.13;;
70367;SDS011;57789;53.868;10.728;2023-11-19T08:33:38;16.53;;;5.90;;
70367;SDS011;57789;53.868;10.728;2023-11-19T08:36:04;17.10;;;6.80;;
70367;SDS011;57789;53.868;10.728;2023-11-19T08:38:30;22.00;;;7.00;;
70367;SDS011;57789;53.868;10.728;2023-11-19T08:40:56;27.37;;;4.63;;
70367;SDS011;57789;53.868;10.728;2023-11-19T08:43:25;25.17;;;5.03;;
70367;SDS011;57789;53.868;10.728;2023-11-19T08:45:51;22.93;;;3.93;;
70367;SDS011;57789;53.868;10.728;2023-11-19T08:48:16;24.00;;;5.37;;
70367;SDS011;57789;53.868;10.728;2023-11-19T08:50:42;26.17;;;4.43;;
70367;SDS011;57789;53.868;10.728;2023-11-19T08:53:08;29.70;;;4.97;;
70367;SDS011;57789;53.868;10.728;2023-11-19T08:55:34;29.43;;;4.47;;
70367;SDS011;57789;53.868;10.728;2023-11-19T08:58:01;26.03;;;4.83;;
70367;SDS011;57789;53.868;10.728;2023-11-19T09:00:27;47.97;;;5.63;;
70367;SDS011;57789;53.868;10.728;2023-11-19T09:02:53;34.57;;;5.77;;
70367;SDS011;57789;53.868;10.728;2023-11-19T09:05:18;25.13;;;4.83;;
70367;SDS011;57789;53.868;10.728;2023-11-19T09:07:44;36.57;;;5.47;;
70367;SDS011;57789;53.868;10.728;2023-11-19T09:10:10;32.13;;;4.80;;
70367;SDS011;57789;53.868;10.728;2023-11-19T09:12:36;22.37;;;4.07;;
70367;SDS011;57789;53.868;10.728;2023-11-19T09:15:02;23.83;;;5.00;;
70367;SDS011;57789;53.868;10.728;2023-11-19T09:17:28;25.90;;;6.63;;
70367;SDS011;57789;53.868;10.728;2023-11-19T09:19:54;29.00;;;4.60;;
70367;SDS011;57789;53.868;10.728;2023-11-19T09:22:20;26.47;;;5.00;;
70367;SDS011;57789;53.868;10.728;2023-11-19T09:24:47;25.80;;;4.43;;
70367;SDS011;57789;53.868;10.728;2023-11-19T09:27:13;29.30;;;5.50;;
70367;SDS011;57789;53.868;10.728;2023-11-19T09:29:39;41.03;;;5.60;;
70367;SDS011;57789;53.868;10.728;2023-11-19T09:32:05;32.90;;;5.47;;
70367;SDS011;57789;53.868;10.728;2023-11-19T09:34:31;29.43;;;5.53;;
70367;SDS011;57789;53.868;10.728;2023-11-19T09:36:57;24.87;;;5.30;;
70367;SDS011;57789;53.868;10.728;2023-11-19T09:39:22;35.47;;;5.80;;
70367;SDS011;57789;53.868;10.728;2023-11-19T09:41:50;45.97;;;6.37;;
70367;SDS011;57789;53.868;10.728;2023-11-19T09:44:16;31.33;;;5.77;;
70367;SDS011;57789;53.868;10.728;2023-11-19T09:46:44;29.30;;;5.97;;
70367;SDS011;57789;53.868;10.728;2023-11-19T09:49:10;32.93;;;5.60;;
70367;SDS011;57789;53.868;10.728;2023-11-19T09:51:37;32.33;;;4.70;;
70367;SDS011;57789;53.868;10.728;2023-11-19T09:54:03;27.73;;;6.10;;
70367;SDS011;57789;53.868;10.728;2023-11-19T09:56:29;22.83;;;5.10;;
70367;SDS011;57789;53.868;10.728;2023-11-19T09:58:55;39.70;;;5.60;;
70367;SDS011;57789;53.868;10.728;2023-11-19T10:01:21;34.57;;;5.60;;
70367;SDS011;57789;53.868;10.728;2023-11-19T10:03:47;34.60;;;6.30;;
70367;SDS011;57789;53.868;10.728;2023-11-19T10:06:15;38.97;;;5.10;;
70367;SDS011;57789;53.868;10.728;2023-11-19T10:08:41;33.33;;;5.27;;
70367;SDS011;57789;53.868;10.728;2023-11-19T10:11:08;32.77;;;5.40;;
70367;SDS011;57789;53.868;10.728;2023-11-19T10:13:36;26.87;;;7.10;;
70367;SDS011;57789;53.868;10.728;2023-11-19T10:16:08;48.70;;;13.73;;
70367;SDS011;57789;53.868;10.728;2023-11-19T10:18:36;23.80;;;4.80;;
70367;SDS011;57789;53.868;10.728;2023-11-19T10:21:06;28.43;;;5.20;;
70367;SDS011;57789;53.868;10.728;2023-11-19T10:23:51;26.87;;;4.50;;
70367;SDS011;57789;53.868;10.728;2023-11-19T10:26:19;27.40;;;4.63;;
70367;SDS011;57789;53.868;10.728;2023-11-19T10:28:46;32.73;;;5.20;;
70367;SDS011;57789;53.868;10.728;2023-11-19T10:31:13;23.97;;;5.37;;
70367;SDS011;57789;53.868;10.728;2023-11-19T10:33:39;38.50;;;5.03;;
70367;SDS011;57789;53.868;10.728;2023-11-19T10:36:05;41.00;;;6.30;;
70367;SDS011;57789;53.868;10.728;2023-11-19T10:38:31;29.87;;;5.17;;
70367;SDS011;57789;53.868;10.728;2023-11-19T10:40:58;43.13;;;5.67;;
70367;SDS011;57789;53.868;10.728;2023-11-19T10:43:24;37.07;;;4.60;;
70367;SDS011;57789;53.868;10.728;2023-11-19T10:45:50;31.43;;;3.80;;
70367;SDS011;57789;53.868;10.728;2023-11-19T10:48:17;32.20;;;5.87;;
70367;SDS011;57789;53.868;10.728;2023-11-19T10:50:43;39.90;;;9.00;;
70367;SDS011;57789;53.868;10.728;2023-11-19T10:53:11;26.23;;;4.80;;
70367;SDS011;57789;53.868;10.728;2023-11-19T10:55:43;28.57;;;4.80;;
70367;SDS011;57789;53.868;10.728;2023-11-19T10:58:12;25.33;;;4.90;;
70367;SDS011;57789;53.868;10.728;2023-11-19T11:00:45;29.83;;;7.00;;
70367;SDS011;57789;53.868;10.728;2023-11-19T11:03:20;21.70;;;4.53;;
70367;SDS011;57789;53.868;10.728;2023-11-19T11:05:50;26.93;;;4.93;;
70367;SDS011;57789;53.868;10.728;2023-11-19T11:08:17;25.67;;;4.37;;
70367;SDS011;57789;53.868;10.728;2023-11-19T11:10:45;32.90;;;4.87;;
70367;SDS011;57789;53.868;10.728;2023-11-19T11:13:17;24.93;;;4.93;;
70367;SDS011;57789;53.868;10.728;2023-11-19T11:15:47;37.03;;;5.70;;
70367;SDS011;57789;53.868;10.728;2023-11-19T11:18:15;23.77;;;5.33;;
70367;SDS011;57789;53.868;10.728;2023-11-19T11:20:44;23.57;;;4.57;;
70367;SDS011;57789;53.868;10.728;2023-11-19T11:39:32;27.40;;;4.60;;
70367;SDS011;57789;53.868;10.728;2023-11-19T11:45:15;25.10;;;4.47;;
70367;SDS011;57789;53.868;10.728;2023-11-19T11:50:10;28.60;;;6.20;;
70367;SDS011;57789;53.868;10.728;2023-11-19T11:55:27;30.33;;;5.60;;
70367;SDS011;57789;53.868;10.728;2023-11-19T11:57:58;36.07;;;5.07;;
70367;SDS011;57789;53.868;10.728;2023-11-19T12:00:30;32.07;;;5.40;;
70367;SDS011;57789;53.868;10.728;2023-11-19T12:03:04;19.60;;;3.60;;
70367;SDS011;57789;53.868;10.728;2023-11-19T12:05:30;28.97;;;4.43;;
70367;SDS011;57789;53.868;10.728;2023-11-19T12:08:02;18.43;;;3.60;;
70367;SDS011;57789;53.868;10.728;2023-11-19T12:10:36;12.93;;;3.47;;
70367;SDS011;57789;53.868;10.728;2023-11-19T12:13:08;18.97;;;3.83;;
70367;SDS011;57789;53.868;10.728;2023-11-19T12:18:26;19.87;;;4.03;;
70367;SDS011;57789;53.868;10.728;2023-11-19T12:20:53;26.93;;;4.30;;
70367;SDS011;57789;53.868;10.728;2023-11-19T12:23:19;23.37;;;5.40;;
70367;SDS011;57789;53.868;10.728;2023-11-19T12:25:45;24.30;;;4.60;;
70367;SDS011;57789;53.868;10.728;2023-11-19T12:28:14;23.47;;;5.43;;
70367;SDS011;57789;53.868;10.728;2023-11-19T12:30:44;29.00;;;4.33;;
70367;SDS011;57789;53.868;10.728;2023-11-19T12:33:11;45.40;;;8.67;;
70367;SDS011;57789;53.868;10.728;2023-11-19T12:35:44;34.63;;;6.83;;
70367;SDS011;57789;53.868;10.728;2023-11-19T12:38:18;31.17;;;4.77;;
70367;SDS011;57789;53.868;10.728;2023-11-19T12:40:45;25.97;;;5.50;;
70367;SDS011;57789;53.868;10.728;2023-11-19T12:43:13;28.30;;;4.57;;
70367;SDS011;57789;53.868;10.728;2023-11-19T12:45:47;27.83;;;4.67;;
70367;SDS011;57789;53.868;10.728;2023-11-19T12:48:13;27.63;;;4.83;;
70367;SDS011;57789;53.868;10.728;2023-11-19T12:50:55;36.30;;;6.90;;
70367;SDS011;57789;53.868;10.728;2023-11-19T12:53:22;25.50;;;4.40;;
70367;SDS011;57789;53.868;10.728;2023-11-19T12:55:49;27.07;;;3.60;;
70367;SDS011;57789;53.868;10.728;2023-11-19T12:58:32;28.57;;;5.17;;
70367;SDS011;57789;53.868;10.728;2023-11-19T13:01:09;30.00;;;4.90;;
70367;SDS011;57789;53.868;10.728;2023-11-19T13:03:37;22.93;;;4.07;;
70367;SDS011;57789;53.868;10.728;2023-11-19T13:06:07;26.67;;;4.70;;
70367;SDS011;57789;53.868;10.728;2023-11-19T13:08:41;20.70;;;4.67;;
70367;SDS011;57789;53.868;10.728;2023-11-19T13:11:10;32.63;;;5.70;;
70367;SDS011;57789;53.868;10.728;2023-11-19T13:16:23;18.47;;;4.03;;
70367;SDS011;57789;53.868;10.728;2023-11-19T13:18:49;37.33;;;5.30;;
70367;SDS011;57789;53.868;10.728;2023-11-19T13:21:15;24.80;;;5.13;;
70367;SDS011;57789;53.868;10.728;2023-11-19T13:23:41;31.83;;;6.07;;
70367;SDS011;57789;53.868;10.728;2023-11-19T13:26:07;18.97;;;4.90;;
70367;SDS011;57789;53.868;10.728;2023-11-19T13:28:33;20.97;;;5.47;;
70367;SDS011;57789;53.868;10.728;2023-11-19T13:31:00;20.77;;;4.30;;
70367;SDS011;57789;53.868;10.728;2023-11-19T13:33:26;32.43;;;5.60;;
70367;SDS011;57789;53.868;10.728;2023-11-19T13:35:52;30.73;;;5.23;;
70367;SDS011;57789;53.868;10.728;2023-11-19T13:38:18;35.50;;;6.07;;
70367;SDS011;57789;53.868;10.728;2023-11-19T13:40:43;40.27;;;6.93;;
70367;SDS011;57789;53.868;10.728;2023-11-19T13:43:09;25.13;;;5.80;;
70367;SDS011;57789;53.868;10.728;2023-11-19T13:45:35;21.23;;;4.63;;
70367;SDS011;57789;53.868;10.728;2023-11-19T13:48:00;32.17;;;5.00;;
70367;SDS011;57789;53.868;10.728;2023-11-19T13:50:26;29.63;;;5.73;;
70367;SDS011;57789;53.868;10.728;2023-11-19T13:52:53;28.23;;;5.23;;
70367;SDS011;57789;53.868;10.728;2023-11-19T13:55:19;37.13;;;5.13;;
70367;SDS011;57789;53.868;10.728;2023-11-19T13:57:45;28.40;;;4.43;;
70367;SDS011;57789;53.868;10.728;2023-11-19T14:00:13;31.97;;;7.07;;
70367;SDS011;57789;53.868;10.728;2023-11-19T14:02:44;37.60;;;7.87;;
70367;SDS011;57789;53.868;10.728;2023-11-19T14:05:12;46.93;;;5.40;;
70367;SDS011;57789;53.868;10.728;2023-11-19T14:07:39;21.73;;;4.63;;
70367;SDS011;57789;53.868;10.728;2023-11-19T14:10:05;30.43;;;4.37;;
70367;SDS011;57789;53.868;10.728;2023-11-19T14:12:34;43.10;;;5.60;;
70367;SDS011;57789;53.868;10.728;2023-11-19T14:15:01;33.03;;;6.17;;
70367;SDS011;57789;53.868;10.728;2023-11-19T14:17:27;37.73;;;5.40;;
70367;SDS011;57789;53.868;10.728;2023-11-19T14:19:53;39.77;;;6.03;;
70367;SDS011;57789;53.868;10.728;2023-11-19T14:22:19;30.10;;;4.77;;
70367;SDS011;57789;53.868;10.728;2023-11-19T14:24:44;30.53;;;5.00;;
70367;SDS011;57789;53.868;10.728;2023-11-19T14:27:10;26.10;;;5.87;;
70367;SDS011;57789;53.868;10.728;2023-11-19T14:29:36;28.07;;;5.50;;
70367;SDS011;57789;53.868;10.728;2023-11-19T14:32:02;36.07;;;6.73;;
70367;SDS011;57789;53.868;10.728;2023-11-19T14:34:29;31.07;;;4.60;;
70367;SDS011;57789;53.868;10.728;2023-11-19T14:36:56;46.03;;;4.63;;
70367;SDS011;57789;53.868;10.728;2023-11-19T14:39:22;28.77;;;4.37;;
70367;SDS011;57789;53.868;10.728;2023-11-19T14:41:47;37.67;;;6.00;;
70367;SDS011;57789;53.868;10.728;2023-11-19T14:44:14;28.73;;;5.60;;
70367;SDS011;57789;53.868;10.728;2023-11-19T14:46:40;28.67;;;5.07;;
70367;SDS011;57789;53.868;10.728;2023-11-19T14:49:06;30.17;;;4.63;;
70367;SDS011;57789;53.868;10.728;2023-11-19T14:51:35;27.80;;;5.10;;
70367;SDS011;57789;53.868;10.728;2023-11-19T14:54:02;28.20;;;5.20;;
70367;SDS011;57789;53.868;10.728;2023-11-19T14:56:31;34.27;;;5.57;;
70367;SDS011;57789;53.868;10.728;2023-11-19T14:58:57;28.67;;;6.53;;
70367;SDS011;57789;53.868;10.728;2023-11-19T15:01:23;25.50;;;5.23;;